Time;durP1;ratioP1;P1;durP2;ratioP2;P2;SDS_P1;SDS_P2;PMS_P1;PMS_P2;Temp;Humidity;BMP_temperature;BMP_pressure;BME280_temperature;BME280_humidity;BME280_pressure;Samples;Min_cycle;Max_cycle;Signal;HPM_P1;HPM_P2
2021/01/07 00:03:10;;;;;;;64.10;30.57;;;;;;;1.28;89.77;97958.92;251513;1150;22901;-80
2021/01/07 00:08:13;;;;;;;67.00;30.40;;;;;;;1.16;89.65;97956.44;251547;1147;23344;-78
2021/01/07 00:13:15;;;;;;;66.77;31.13;;;;;;;1.10;89.97;97953.98;252131;1148;23204;-80
2021/01/07 00:18:17;;;;;;;70.80;32.63;;;;;;;1.05;90.11;97957.36;251896;1148;23164;-81
2021/01/07 00:23:20;;;;;;;62.25;30.45;;;;;;;1.09;90.56;97953.19;251690;1148;27280;-79
2021/01/07 00:28:24;;;;;;;60.70;27.33;;;;;;;1.12;91.06;97967.70;251663;1155;22908;-82
2021/01/07 00:33:26;;;;;;;48.13;23.17;;;;;;;1.10;90.43;97964.53;251593;1150;22945;-82
2021/01/07 00:38:28;;;;;;;41.77;20.30;;;;;;;1.02;90.76;97966.56;251653;1152;22930;-80
2021/01/07 00:43:31;;;;;;;38.47;19.40;;;;;;;0.99;90.25;97974.16;251688;1148;22961;-79
2021/01/07 00:48:33;;;;;;;36.70;18.27;;;;;;;1.01;90.30;97974.72;252726;1150;22964;-80
2021/01/07 00:53:36;;;;;;;32.80;17.15;;;;;;;1.01;89.94;97972.08;252397;1147;22998;-78
2021/01/07 00:58:39;;;;;;;31.93;15.93;;;;;;;0.98;90.36;97967.27;251942;1148;22889;-81
2021/01/07 01:03:41;;;;;;;28.67;14.33;;;;;;;0.94;90.56;97976.75;252083;1148;22885;-80
2021/01/07 01:08:43;;;;;;;29.73;15.00;;;;;;;0.94;90.33;97982.02;251718;1147;27389;-80
2021/01/07 01:13:45;;;;;;;31.47;15.97;;;;;;;0.99;90.71;97987.34;251830;1148;22930;-81
2021/01/07 01:18:47;;;;;;;25.20;13.03;;;;;;;1.02;90.92;97978.93;251547;1148;22970;-80
2021/01/07 01:23:49;;;;;;;32.23;14.83;;;;;;;0.92;90.30;97978.81;251505;1148;22920;-80
2021/01/07 01:28:53;;;;;;;29.53;14.37;;;;;;;0.82;89.41;97980.27;251897;1153;23083;-80
2021/01/07 01:33:55;;;;;;;28.20;14.03;;;;;;;0.74;89.57;97980.72;252560;1147;22939;-79
2021/01/07 01:38:58;;;;;;;29.23;14.13;;;;;;;0.73;90.11;97979.11;251611;1153;22976;-80
2021/01/07 01:44:00;;;;;;;25.20;13.07;;;;;;;0.72;89.44;97980.15;251896;1148;22948;-80
2021/01/07 01:49:03;;;;;;;22.90;12.13;;;;;;;0.67;90.46;97974.80;251781;1153;22958;-81
2021/01/07 01:54:06;;;;;;;20.37;11.03;;;;;;;0.64;90.66;97973.47;251849;1147;22915;-80
2021/01/07 01:59:11;;;;;;;21.07;12.60;;;;;;;0.68;90.69;97973.77;251647;1148;22924;-79
2021/01/07 02:04:13;;;;;;;17.23;9.47;;;;;;;0.78;90.67;97976.52;251716;1148;22958;-79
2021/01/07 02:09:16;;;;;;;16.00;8.55;;;;;;;0.80;89.80;97968.40;251277;1148;22920;-79
2021/01/07 02:14:18;;;;;;;21.40;11.53;;;;;;;0.79;90.62;97967.58;251576;1147;23169;-79
2021/01/07 02:19:21;;;;;;;37.93;16.43;;;;;;;0.87;90.31;97965.55;251446;1148;23583;-81
2021/01/07 02:24:24;;;;;;;38.20;16.97;;;;;;;0.97;90.66;97971.77;251985;1147;23123;-81
2021/01/07 02:29:30;;;;;;;30.03;15.73;;;;;;;1.02;90.67;97969.20;251768;1153;22950;-77
2021/01/07 02:34:32;;;;;;;32.80;16.50;;;;;;;0.98;89.77;97968.09;251260;1148;22984;-82
2021/01/07 02:39:34;;;;;;;50.27;22.73;;;;;;;0.82;90.28;97975.00;252748;1153;22971;-79
2021/01/07 02:44:37;;;;;;;50.77;22.53;;;;;;;0.71;89.79;97978.55;251429;1148;22973;-76
2021/01/07 02:49:41;;;;;;;50.60;23.10;;;;;;;0.63;89.88;97978.95;251199;1148;24599;-79
2021/01/07 02:54:43;;;;;;;57.53;25.83;;;;;;;0.59;89.81;97981.30;251262;1148;22977;-81
2021/01/07 02:59:45;;;;;;;50.50;23.10;;;;;;;0.62;90.33;97990.56;251604;1151;22880;-80
2021/01/07 03:04:48;;;;;;;60.17;25.30;;;;;;;0.62;90.93;97986.08;251582;1147;23113;-80
2021/01/07 03:09:51;;;;;;;60.50;27.45;;;;;;;0.67;90.09;97988.80;251721;1148;22970;-78
2021/01/07 03:14:53;;;;;;;52.00;23.30;;;;;;;0.71;89.75;97991.73;251621;1148;22960;-80
2021/01/07 03:19:55;;;;;;;44.60;21.65;;;;;;;0.69;90.14;97980.64;251049;1153;22883;-80
2021/01/07 03:24:58;;;;;;;47.43;20.77;;;;;;;0.62;89.84;97986.08;251478;1147;23093;-78
2021/01/07 03:30:01;;;;;;;43.75;19.35;;;;;;;0.57;89.53;97986.00;251601;1151;22931;-81
2021/01/07 03:35:06;;;;;;;31.77;15.90;;;;;;;0.64;89.93;97988.47;252074;1148;22951;-79
2021/01/07 03:40:09;;;;;;;24.37;13.07;;;;;;;0.61;90.22;97986.33;251777;1150;22935;-79
2021/01/07 03:45:13;;;;;;;21.43;10.83;;;;;;;0.48;89.62;97984.83;251928;1146;23066;-78
2021/01/07 03:50:15;;;;;;;26.57;12.33;;;;;;;0.34;89.62;97985.16;252261;1153;22918;-83
2021/01/07 03:55:18;;;;;;;25.47;12.77;;;;;;;0.32;90.65;97989.87;251027;1148;23405;-78
2021/01/07 04:00:20;;;;;;;29.80;14.13;;;;;;;0.38;90.72;97979.39;251552;1148;22933;-78
2021/01/07 04:05:23;;;;;;;31.37;15.97;;;;;;;0.41;90.76;97992.11;251614;1148;22962;-80
2021/01/07 04:10:25;;;;;;;30.67;14.73;;;;;;;0.39;90.16;97994.95;251267;1148;22904;-78
2021/01/07 04:15:27;;;;;;;28.23;12.43;;;;;;;0.40;90.34;97991.30;251514;1148;23457;-78
2021/01/07 04:20:29;;;;;;;23.67;12.77;;;;;;;0.41;90.54;97994.75;251459;1148;22954;-80
2021/01/07 04:25:31;;;;;;;23.07;13.40;;;;;;;0.48;91.10;97990.10;251582;1148;22957;-78
2021/01/07 04:30:34;;;;;;;18.57;10.93;;;;;;;0.45;90.83;97996.65;251710;1152;22935;-81
2021/01/07 04:35:36;;;;;;;20.67;10.97;;;;;;;0.41;90.21;97997.38;251458;1147;23090;-79
2021/01/07 04:40:38;;;;;;;21.83;12.00;;;;;;;0.38;90.71;98006.56;251950;1148;22995;-79
2021/01/07 04:45:40;;;;;;;26.13;13.97;;;;;;;0.40;90.07;98004.47;251629;1147;23015;-80
2021/01/07 04:50:42;;;;;;;31.00;14.37;;;;;;;0.44;90.76;98005.59;251954;1148;24446;-79
2021/01/07 04:55:44;;;;;;;22.40;12.35;;;;;;;0.44;90.68;98010.86;251344;1147;24014;-79
2021/01/07 05:00:47;;;;;;;25.23;11.87;;;;;;;0.42;90.68;98009.50;251660;1148;22936;-80
2021/01/07 05:05:53;;;;;;;29.05;14.75;;;;;;;0.39;89.83;98012.62;251704;1147;22981;-78
2021/01/07 05:10:57;;;;;;;29.40;14.83;;;;;;;0.37;89.53;98023.41;251954;1148;22970;-80
2021/01/07 05:16:00;;;;;;;24.67;12.77;;;;;;;0.38;89.90;98022.38;251613;1148;22952;-79
2021/01/07 05:21:03;;;;;;;21.07;11.53;;;;;;;0.35;89.77;98028.13;251193;1147;22928;-80
2021/01/07 05:26:08;;;;;;;16.13;8.83;;;;;;;0.28;89.56;98022.19;251208;1147;22954;-78
2021/01/07 05:31:11;;;;;;;14.63;8.70;;;;;;;0.19;90.19;98024.44;251677;1151;23031;-79
2021/01/07 05:36:27;;;;;;;17.07;8.77;;;;;;;0.19;90.48;98029.70;251738;1153;22936;-80
2021/01/07 05:41:29;;;;;;;16.70;9.37;;;;;;;0.21;89.74;98032.09;251537;1153;22916;-79
2021/01/07 05:46:34;;;;;;;18.87;10.63;;;;;;;0.22;90.98;98033.70;251221;1147;26619;-79
2021/01/07 05:51:40;;;;;;;15.93;9.30;;;;;;;0.22;90.71;98042.39;252213;1147;23031;-80
2021/01/07 05:56:44;;;;;;;16.70;8.40;;;;;;;0.22;89.94;98044.23;251505;1148;23059;-81
2021/01/07 06:01:50;;;;;;;19.87;11.47;;;;;;;0.21;90.60;98042.63;251370;1148;22962;-80
2021/01/07 06:06:53;;;;;;;18.95;11.60;;;;;;;0.21;90.65;98050.53;251002;1148;28005;-81
2021/01/07 06:11:59;;;;;;;15.23;9.73;;;;;;;0.17;90.60;98058.13;251058;1148;22951;-79
2021/01/07 06:17:01;;;;;;;16.10;9.75;;;;;;;0.12;90.29;98050.92;251533;1149;23065;-80
2021/01/07 06:22:12;;;;;;;11.77;7.80;;;;;;;0.10;89.68;98058.27;251780;1149;22956;-80
2021/01/07 06:27:29;;;;;;;13.67;7.90;;;;;;;0.12;90.80;98058.03;251763;1148;22714;-81
2021/01/07 06:32:32;;;;;;;17.20;9.37;;;;;;;0.18;90.31;98064.19;251822;1147;22946;-79
2021/01/07 06:37:40;;;;;;;18.40;8.90;;;;;;;0.21;90.66;98064.52;251401;1150;22942;-79
2021/01/07 06:42:44;;;;;;;14.07;8.23;;;;;;;0.15;90.26;98079.44;251169;1148;25404;-79
2021/01/07 06:47:47;;;;;;;14.77;7.93;;;;;;;0.12;90.61;98087.80;250686;1148;22988;-82
2021/01/07 06:52:50;;;;;;;15.57;8.97;;;;;;;0.12;90.57;98085.16;250917;1148;22998;-75
2021/01/07 06:57:57;;;;;;;17.67;10.03;;;;;;;0.14;90.83;98100.72;250424;1147;23041;-80
2021/01/07 07:03:01;;;;;;;17.05;9.45;;;;;;;0.14;89.76;98101.55;250956;1147;23401;-79
2021/01/07 07:08:11;;;;;;;17.43;9.97;;;;;;;0.14;90.39;98101.55;251472;1148;22931;-79
2021/01/07 07:13:17;;;;;;;;;;;;;;;0.11;89.23;98115.19;251635;1147;23025;-78
2021/01/07 07:18:32;;;;;;;11.23;6.93;;;;;;;0.07;90.18;98115.88;251371;1147;21565;-79
2021/01/07 07:23:34;;;;;;;12.47;7.50;;;;;;;0.07;90.26;98123.78;251788;1147;22984;-81
2021/01/07 07:28:37;;;;;;;19.30;10.10;;;;;;;0.11;90.48;98120.46;251314;1147;22977;-81
2021/01/07 07:33:41;;;;;;;17.37;9.93;;;;;;;0.13;90.18;98131.55;251033;1148;22921;-81
2021/01/07 07:38:43;;;;;;;15.73;9.13;;;;;;;0.13;90.18;98147.34;252599;1147;23027;-82
2021/01/07 07:43:45;;;;;;;15.00;8.40;;;;;;;0.19;89.68;98156.14;252309;1147;22940;-82
2021/01/07 07:48:47;;;;;;;10.57;6.57;;;;;;;0.22;89.95;98165.41;253864;1148;23142;-79
2021/01/07 07:53:50;;;;;;;14.50;7.33;;;;;;;0.24;90.31;98163.33;252280;1148;22949;-79
2021/01/07 07:59:05;;;;;;;12.50;7.43;;;;;;;0.30;90.30;98167.67;251836;1147;24603;-80
2021/01/07 08:04:13;;;;;;;12.93;7.50;;;;;;;0.34;89.25;98166.95;252215;1147;26414;-78
2021/01/07 08:09:17;;;;;;;11.05;6.25;;;;;;;0.39;90.20;98168.08;251035;1147;22959;-79
2021/01/07 08:14:28;;;;;;;11.57;6.43;;;;;;;0.37;89.63;98178.86;252727;1147;23014;-79
2021/01/07 08:19:32;;;;;;;12.33;6.93;;;;;;;0.34;89.57;98180.13;251122;1148;22963;-78
2021/01/07 08:24:34;;;;;;;10.67;6.50;;;;;;;0.34;89.42;98182.77;251466;1147;27487;-79
2021/01/07 08:29:40;;;;;;;11.15;6.65;;;;;;;0.40;89.70;98188.13;250946;1147;22954;-80
2021/01/07 08:34:45;;;;;;;12.60;6.87;;;;;;;0.42;88.92;98192.14;251838;1147;22890;-79
2021/01/07 08:39:47;;;;;;;12.30;7.90;;;;;;;0.47;89.73;98194.84;251595;1147;26060;-79
2021/01/07 08:44:58;;;;;;;12.13;6.83;;;;;;;0.55;89.44;98200.80;250930;1146;22964;-77
2021/01/07 08:50:15;;;;;;;9.73;6.13;;;;;;;0.59;89.30;98209.80;250369;1147;22967;-78
2021/01/07 08:55:19;;;;;;;12.77;6.87;;;;;;;0.60;89.24;98212.23;250537;1148;22998;-80
2021/01/07 09:00:23;;;;;;;15.43;7.40;;;;;;;0.59;88.55;98217.70;251047;1146;23508;-77
2021/01/07 09:05:43;;;;;;;13.70;7.47;;;;;;;0.66;88.66;98213.11;250787;1148;26455;-78
2021/01/07 09:10:45;;;;;;;13.17;7.63;;;;;;;0.72;89.06;98217.42;251509;1147;23054;-76
2021/01/07 09:15:49;;;;;;;15.80;8.13;;;;;;;0.72;88.16;98214.00;251100;1147;22970;-77
2021/01/07 09:20:51;;;;;;;14.60;7.63;;;;;;;0.73;88.49;98221.67;251227;1147;25999;-77
2021/01/07 09:25:53;;;;;;;15.53;8.43;;;;;;;0.81;87.95;98215.19;250490;1147;22992;-75
2021/01/07 09:30:55;;;;;;;16.20;9.80;;;;;;;0.92;88.71;98219.59;250843;1147;22995;-75
2021/01/07 09:35:57;;;;;;;17.60;10.13;;;;;;;0.98;87.96;98225.75;250592;1147;22979;-76
2021/01/07 09:40:59;;;;;;;17.67;10.93;;;;;;;0.97;88.33;98221.53;250398;1147;22948;-76
2021/01/07 09:46:01;;;;;;;16.73;9.90;;;;;;;0.98;87.80;98223.11;250700;1147;22968;-77
2021/01/07 09:51:04;;;;;;;18.10;10.57;;;;;;;1.00;87.87;98221.05;250947;1147;22945;-75
2021/01/07 09:56:06;;;;;;;16.40;10.70;;;;;;;1.02;87.77;98225.05;250629;1147;22943;-78
2021/01/07 10:01:09;;;;;;;20.15;12.85;;;;;;;1.00;87.74;98224.48;250994;1147;22908;-78
2021/01/07 10:06:12;;;;;;;23.63;14.73;;;;;;;1.06;87.69;98222.72;254278;1147;22963;-79
2021/01/07 10:11:14;;;;;;;26.13;14.63;;;;;;;1.15;88.15;98225.78;250874;1147;25977;-77
2021/01/07 10:16:16;;;;;;;22.60;14.97;;;;;;;1.13;88.17;98217.29;250613;1147;22952;-79
2021/01/07 10:21:21;;;;;;;17.75;11.35;;;;;;;1.02;87.88;98222.42;250606;1147;23039;-78
2021/01/07 10:26:23;;;;;;;14.73;9.20;;;;;;;1.04;87.38;98221.39;251407;1148;22879;-79
2021/01/07 10:31:26;;;;;;;14.13;8.60;;;;;;;1.01;88.03;98223.45;251089;1147;23040;-77
2021/01/07 10:36:28;;;;;;;12.33;8.13;;;;;;;0.99;86.98;98224.72;251021;1147;22970;-74
2021/01/07 10:41:30;;;;;;;12.20;7.40;;;;;;;1.04;87.78;98227.45;250765;1148;23079;-74
2021/01/07 10:46:37;;;;;;;17.73;10.83;;;;;;;1.03;87.24;98231.12;250427;1147;22907;-75
2021/01/07 10:52:07;;;;;;;19.60;12.10;;;;;;;1.11;87.12;98227.30;250688;1148;22977;-79
2021/01/07 10:57:19;;;;;;;16.07;9.33;;;;;;;1.08;87.77;98220.66;250764;1147;22951;-78
2021/01/07 11:02:46;;;;;;;17.60;10.50;;;;;;;1.02;87.25;98229.52;251300;1147;23103;-77
2021/01/07 11:08:20;;;;;;;16.43;9.67;;;;;;;0.96;87.02;98225.20;250943;1148;22950;-78
2021/01/07 11:13:30;;;;;;;16.67;8.60;;;;;;;0.98;87.36;98228.39;250578;1148;22960;-74
2021/01/07 11:18:42;;;;;;;16.07;8.20;;;;;;;0.93;86.84;98220.41;250929;1148;22953;-76
2021/01/07 11:23:44;;;;;;;15.85;9.10;;;;;;;0.88;87.25;98217.68;250010;1148;26504;-76
2021/01/07 11:28:50;;;;;;;13.90;9.17;;;;;;;0.82;87.48;98216.80;250382;1148;22964;-77
2021/01/07 11:33:54;;;;;;;14.13;8.17;;;;;;;0.76;87.67;98208.00;250665;1147;26484;-78
2021/01/07 11:39:01;;;;;;;14.23;7.67;;;;;;;0.71;87.52;98205.27;250745;1148;22942;-77
2021/01/07 11:44:22;;;;;;;16.40;9.53;;;;;;;0.76;88.09;98207.22;250501;1148;22972;-77
2021/01/07 11:49:24;;;;;;;13.60;8.53;;;;;;;0.92;88.32;98208.25;250369;1148;22912;-77
2021/01/07 11:54:27;;;;;;;18.47;9.60;;;;;;;0.98;87.79;98210.74;250401;1148;22926;-79
2021/01/07 11:59:30;;;;;;;15.10;8.13;;;;;;;1.02;88.22;98208.41;250394;1148;22939;-74
2021/01/07 12:04:32;;;;;;;27.80;10.00;;;;;;;1.17;87.58;98219.20;250459;1148;26478;-76
2021/01/07 12:09:40;;;;;;;14.73;9.13;;;;;;;1.28;87.82;98211.45;250384;1148;23813;-76
2021/01/07 12:14:47;;;;;;;16.23;9.10;;;;;;;1.28;87.16;98208.82;250485;1147;22942;-77
2021/01/07 12:19:50;;;;;;;20.00;9.90;;;;;;;1.39;87.60;98213.20;250553;1148;23116;-77
2021/01/07 12:24:55;;;;;;;17.03;9.57;;;;;;;1.48;87.13;98214.41;250416;1148;23006;-79
2021/01/07 12:29:58;;;;;;;18.83;9.90;;;;;;;1.40;87.39;98214.81;250814;1148;25471;-78
2021/01/07 12:35:01;;;;;;;17.20;10.23;;;;;;;1.43;87.85;98211.68;250510;1147;22956;-77
2021/01/07 12:40:07;;;;;;;16.87;10.73;;;;;;;1.54;87.34;98202.07;251128;1147;22926;-77
2021/01/07 12:45:14;;;;;;;15.57;9.87;;;;;;;1.70;88.35;98200.42;251215;1148;22928;-81
2021/01/07 12:50:16;;;;;;;18.95;10.65;;;;;;;1.78;87.13;98197.36;251075;1148;27394;-80
2021/01/07 12:55:19;;;;;;;18.00;9.00;;;;;;;1.78;86.60;98201.86;251162;1147;23003;-79
2021/01/07 13:00:27;;;;;;;16.60;9.30;;;;;;;1.70;86.05;98200.42;250877;1148;22965;-79
2021/01/07 13:05:54;;;;;;;16.23;8.57;;;;;;;1.65;86.71;98198.52;251135;1148;22915;-79
2021/01/07 13:10:59;;;;;;;16.67;8.80;;;;;;;1.74;87.12;98206.81;252244;1148;22939;-79
2021/01/07 13:16:02;;;;;;;13.35;8.30;;;;;;;1.69;86.33;98215.48;251790;1148;22937;-78
2021/01/07 13:21:05;;;;;;;15.30;8.60;;;;;;;1.64;86.31;98212.76;251352;1148;23103;-80
2021/01/07 13:26:08;;;;;;;10.95;6.90;;;;;;;1.58;85.93;98221.66;250965;1147;23112;-80
2021/01/07 13:31:11;;;;;;;16.63;9.03;;;;;;;1.57;86.48;98211.32;251260;1148;23013;-79
2021/01/07 13:36:14;;;;;;;15.43;8.23;;;;;;;1.53;86.93;98213.66;250543;1148;23406;-77
2021/01/07 13:41:18;;;;;;;20.47;11.03;;;;;;;1.56;87.31;98221.09;250597;1147;22983;-78
2021/01/07 13:46:24;;;;;;;15.83;9.43;;;;;;;1.51;86.95;98223.66;250618;1147;23103;-77
2021/01/07 13:51:28;;;;;;;17.25;10.05;;;;;;;1.46;86.48;98224.39;250931;1148;22939;-77
2021/01/07 13:56:30;;;;;;;17.67;8.90;;;;;;;1.41;86.79;98226.16;250789;1148;27655;-80
2021/01/07 14:01:33;;;;;;;14.10;8.37;;;;;;;1.24;86.46;98237.52;250708;1148;23249;-76
2021/01/07 14:06:36;;;;;;;14.90;8.00;;;;;;;1.14;86.34;98234.73;250923;1148;22938;-77
2021/01/07 14:11:40;;;;;;;14.17;8.03;;;;;;;1.16;87.06;98237.91;251544;1147;22952;-79
2021/01/07 14:16:48;;;;;;;14.90;8.33;;;;;;;1.12;86.00;98242.88;251871;1147;22943;-80
2021/01/07 14:21:50;;;;;;;14.57;8.17;;;;;;;1.09;87.07;98253.92;251119;1148;22901;-79
2021/01/07 14:27:33;;;;;;;12.77;6.80;;;;;;;1.10;86.42;98255.50;250854;1148;22996;-76
2021/01/07 14:32:37;;;;;;;14.65;8.70;;;;;;;1.02;86.89;98258.53;250412;1148;22956;-77
2021/01/07 14:37:41;;;;;;;14.27;7.87;;;;;;;0.92;86.74;98263.64;250452;1148;22971;-74
2021/01/07 14:42:45;;;;;;;14.97;8.97;;;;;;;0.83;87.15;98264.02;251049;1148;22969;-79
2021/01/07 14:47:53;;;;;;;20.13;10.27;;;;;;;0.77;87.39;98266.80;250399;1147;22952;-78
2021/01/07 14:53:01;;;;;;;11.43;6.73;;;;;;;0.74;87.18;98257.55;250825;1148;23039;-77
2021/01/07 14:58:41;;;;;;;11.57;7.17;;;;;;;0.67;86.54;98264.78;250710;1148;23399;-78
2021/01/07 15:04:09;;;;;;;13.67;8.53;;;;;;;0.57;86.90;98256.70;251123;1147;22928;-78
2021/01/07 15:09:17;;;;;;;14.83;9.40;;;;;;;0.54;87.21;98272.98;251133;1147;23425;-79
2021/01/07 15:14:25;;;;;;;11.30;6.30;;;;;;;0.53;87.20;98269.53;250710;1148;22978;-77
2021/01/07 15:19:29;;;;;;;15.90;7.70;;;;;;;0.50;87.98;98260.28;251817;1147;27717;-78
2021/01/07 15:24:41;;;;;;;9.10;5.77;;;;;;;0.57;88.17;98270.66;250794;1146;25970;-79
2021/01/07 15:29:43;;;;;;;12.97;7.87;;;;;;;0.58;88.49;98268.84;251476;1147;22887;-78
2021/01/07 15:34:53;;;;;;;14.70;8.30;;;;;;;0.59;87.47;98262.52;249941;1145;23080;-78
2021/01/07 15:40:12;;;;;;;12.07;6.37;;;;;;;0.59;88.31;98262.52;250270;1147;22890;-82
2021/01/07 15:45:53;;;;;;;12.58;8.28;;;;;;;0.52;87.25;98257.41;250007;1148;22949;-78
2021/01/07 15:51:03;;;;;;;11.80;7.00;;;;;;;0.46;87.04;98261.79;250251;1147;23038;-77
2021/01/07 15:56:35;;;;;;;14.60;9.10;;;;;;;0.39;87.53;98261.09;250137;1147;22966;-78
2021/01/07 16:01:47;;;;;;;17.90;9.53;;;;;;;0.35;87.61;98260.00;250324;1147;22960;-80
2021/01/07 16:06:59;;;;;;;19.40;10.63;;;;;;;0.33;87.65;98264.69;250228;1147;27742;-78
2021/01/07 16:12:05;;;;;;;18.07;9.87;;;;;;;0.35;87.91;98265.27;250339;1148;22978;-78
2021/01/07 16:17:07;;;;;;;24.50;13.90;;;;;;;0.33;88.43;98264.69;249982;1148;25961;-79
2021/01/07 16:22:22;;;;;;;27.90;15.57;;;;;;;0.31;88.27;98262.28;250217;1148;22942;-78
2021/01/07 16:27:32;;;;;;;22.07;11.53;;;;;;;0.31;88.50;98258.86;250101;1152;22971;-78
2021/01/07 16:32:35;;;;;;;27.70;14.50;;;;;;;0.25;88.35;98270.31;250293;1148;22964;-78
2021/01/07 16:37:39;;;;;;;23.60;14.03;;;;;;;0.25;89.06;98265.87;250052;1148;25986;-78
2021/01/07 16:42:42;;;;;;;30.45;16.80;;;;;;;0.24;87.94;98273.98;250058;1147;26401;-77
2021/01/07 16:47:44;;;;;;;30.40;13.90;;;;;;;0.23;88.72;98269.77;249937;1148;23056;-77
2021/01/07 16:52:48;;;;;;;33.03;15.33;;;;;;;0.20;88.75;98275.47;250074;1148;22947;-78
2021/01/07 16:57:51;;;;;;;36.77;18.13;;;;;;;0.19;88.40;98265.99;250138;1148;22901;-78
2021/01/07 17:02:53;;;;;;;34.27;17.57;;;;;;;0.19;88.52;98272.05;250125;1148;22945;-78
2021/01/07 17:07:55;;;;;;;31.87;18.30;;;;;;;0.18;88.53;98270.44;250111;1147;23028;-78
2021/01/07 17:12:58;;;;;;;37.50;19.33;;;;;;;0.16;88.65;98275.94;249997;1147;23023;-77
2021/01/07 17:18:00;;;;;;;39.90;19.43;;;;;;;0.12;88.51;98280.08;249937;1147;23031;-79
2021/01/07 17:23:05;;;;;;;37.67;18.77;;;;;;;0.09;89.20;98287.66;250228;1148;22901;-77
2021/01/07 17:28:07;;;;;;;39.50;18.15;;;;;;;0.08;88.73;98297.38;250080;1152;22949;-79
2021/01/07 17:33:09;;;;;;;39.70;21.37;;;;;;;0.07;89.24;98293.16;250051;1147;22945;-78
2021/01/07 17:38:11;;;;;;;41.23;20.67;;;;;;;0.07;89.97;98295.79;249968;1147;22956;-77
2021/01/07 17:43:13;;;;;;;40.13;19.97;;;;;;;0.08;89.21;98294.73;250007;1147;22922;-78
2021/01/07 17:48:15;;;;;;;34.40;18.07;;;;;;;0.13;89.93;98294.06;249901;1148;22988;-77
2021/01/07 17:53:17;;;;;;;40.45;21.10;;;;;;;0.16;89.07;98304.13;250021;1147;22960;-79
2021/01/07 17:58:21;;;;;;;36.75;18.50;;;;;;;0.18;90.14;98306.53;250136;1148;27447;-78
2021/01/07 18:03:24;;;;;;;39.87;18.57;;;;;;;0.15;89.80;98303.34;250057;1147;22964;-79
2021/01/07 18:08:26;;;;;;;32.83;16.47;;;;;;;0.16;90.10;98304.92;250006;1148;22973;-79
2021/01/07 18:13:28;;;;;;;32.43;17.63;;;;;;;0.19;89.38;98305.50;249836;1148;22983;-77
2021/01/07 18:18:30;;;;;;;28.33;14.10;;;;;;;0.19;89.86;98308.93;249869;1155;22953;-79
2021/01/07 18:23:32;;;;;;;29.65;14.95;;;;;;;0.18;89.84;98306.53;249802;1148;22970;-78
2021/01/07 18:28:35;;;;;;;27.63;14.90;;;;;;;0.17;89.74;98308.37;249932;1148;22969;-80
2021/01/07 18:33:37;;;;;;;25.43;14.67;;;;;;;0.13;89.27;98308.02;250014;1148;22941;-75
2021/01/07 18:38:39;;;;;;;26.83;13.87;;;;;;;0.11;89.88;98319.81;249850;1155;22893;-77
2021/01/07 18:43:42;;;;;;;24.73;13.50;;;;;;;0.10;89.85;98321.66;249905;1147;22614;-79
2021/01/07 18:48:44;;;;;;;25.25;13.80;;;;;;;0.10;89.25;98321.66;249939;1148;27304;-76
2021/01/07 18:53:47;;;;;;;29.20;14.83;;;;;;;0.07;90.01;98319.50;250134;1147;25197;-77
2021/01/07 18:58:50;;;;;;;27.97;14.27;;;;;;;0.06;89.52;98323.16;249962;1148;22928;-76
2021/01/07 19:03:53;;;;;;;22.27;11.60;;;;;;;0.05;89.40;98323.39;250004;1147;22960;-78
2021/01/07 19:08:55;;;;;;;22.90;12.00;;;;;;;0.00;89.16;98318.82;250165;1148;22945;-77
2021/01/07 19:13:57;;;;;;;22.90;12.20;;;;;;;-0.07;88.86;98324.20;250338;1149;23135;-77
2021/01/07 19:19:00;;;;;;;24.85;11.95;;;;;;;-0.11;89.24;98322.23;250245;1148;25969;-76
2021/01/07 19:24:02;;;;;;;19.20;10.90;;;;;;;-0.14;88.93;98320.89;250722;1147;23019;-76
2021/01/07 19:29:07;;;;;;;21.70;11.90;;;;;;;-0.15;88.34;98326.35;249997;1151;22935;-76
2021/01/07 19:34:09;;;;;;;18.10;10.45;;;;;;;-0.21;88.29;98321.00;250139;1150;22943;-78
2021/01/07 19:39:12;;;;;;;20.50;9.93;;;;;;;-0.23;88.69;98333.57;250166;1148;22943;-78
2021/01/07 19:44:14;;;;;;;18.65;10.35;;;;;;;-0.22;88.70;98342.28;250098;1152;23112;-80
2021/01/07 19:49:20;;;;;;;21.27;10.70;;;;;;;-0.24;88.60;98344.33;250075;1150;23037;-80
2021/01/07 19:54:22;;;;;;;18.57;10.00;;;;;;;-0.24;88.33;98339.89;249957;1149;22955;-88
2021/01/07 19:59:25;;;;;;;15.50;8.47;;;;;;;-0.30;87.64;98348.67;250261;1148;23103;-80
2021/01/07 20:04:28;;;;;;;17.15;9.10;;;;;;;-0.37;88.30;98345.36;249954;1150;22953;-75
2021/01/07 20:09:31;;;;;;;13.75;8.05;;;;;;;-0.40;88.19;98351.88;250209;1148;22936;-78
2021/01/07 20:14:33;;;;;;;18.70;9.70;;;;;;;-0.40;88.25;98351.08;250223;1148;27714;-77
2021/01/07 20:19:35;;;;;;;14.03;8.10;;;;;;;-0.42;88.28;98343.41;250273;1148;23041;-79
2021/01/07 20:24:37;;;;;;;16.60;8.70;;;;;;;-0.43;87.19;98354.17;250169;1147;22950;-79
2021/01/07 20:29:39;;;;;;;14.40;7.53;;;;;;;-0.46;88.15;98360.69;250010;1147;23004;-78
2021/01/07 20:34:42;;;;;;;16.93;8.93;;;;;;;-0.46;88.15;98371.22;250117;1155;22923;-77
2021/01/07 20:39:44;;;;;;;18.83;8.80;;;;;;;-0.49;87.17;98363.77;250155;1151;22987;-78
2021/01/07 20:44:46;;;;;;;18.55;9.00;;;;;;;-0.50;87.37;98364.80;250607;1152;22963;-79
2021/01/07 20:49:49;;;;;;;16.80;8.30;;;;;;;-0.54;88.14;98356.54;250523;1147;24669;-79
2021/01/07 20:54:51;;;;;;;15.07;8.60;;;;;;;-0.53;87.29;98365.25;250319;1151;22958;-76
2021/01/07 20:59:56;;;;;;;16.90;9.40;;;;;;;-0.54;87.57;98368.91;250199;1150;23106;-79
2021/01/07 21:04:59;;;;;;;17.60;8.90;;;;;;;-0.53;87.59;98375.78;250159;1150;23100;-78
2021/01/07 21:10:01;;;;;;;16.97;8.27;;;;;;;-0.53;87.85;98365.25;249941;1148;28276;-79
2021/01/07 21:15:08;;;;;;;15.40;8.30;;;;;;;-0.55;87.01;98362.82;250086;1148;22984;-79
2021/01/07 21:20:12;;;;;;;15.20;8.70;;;;;;;-0.52;88.09;98370.28;250551;1150;22967;-80
2021/01/07 21:25:14;;;;;;;14.83;7.93;;;;;;;-0.53;87.12;98376.57;250032;1152;22967;-80
2021/01/07 21:30:18;;;;;;;15.70;7.50;;;;;;;-0.47;87.63;98364.34;250098;1147;23021;-78
2021/01/07 21:35:21;;;;;;;13.90;7.30;;;;;;;-0.42;88.02;98367.10;250263;1153;23469;-78
2021/01/07 21:40:23;;;;;;;16.53;7.93;;;;;;;-0.37;87.44;98361.15;249867;1148;22944;-78
2021/01/07 21:45:26;;;;;;;16.43;7.60;;;;;;;-0.37;87.32;98369.84;249978;1148;22971;-80
2021/01/07 21:50:29;;;;;;;20.57;9.27;;;;;;;-0.41;86.49;98376.58;250149;1148;23098;-75
2021/01/07 21:55:31;;;;;;;20.70;9.17;;;;;;;-0.42;87.06;98377.63;250186;1148;22994;-77
2021/01/07 22:00:34;;;;;;;21.17;9.13;;;;;;;-0.45;87.61;98369.37;250042;1148;22950;-78
2021/01/07 22:05:36;;;;;;;14.27;7.70;;;;;;;-0.48;86.97;98373.25;250064;1148;22967;-77
2021/01/07 22:10:38;;;;;;;19.03;9.13;;;;;;;-0.50;87.08;98377.13;249996;1147;24558;-78
2021/01/07 22:15:40;;;;;;;15.60;7.95;;;;;;;-0.50;88.04;98374.50;250337;1152;22952;-78
2021/01/07 22:20:42;;;;;;;18.97;9.70;;;;;;;-0.50;86.63;98387.66;249955;1150;23046;-79
2021/01/07 22:25:44;;;;;;;18.63;9.73;;;;;;;-0.50;87.64;98379.77;249771;1148;23045;-78
2021/01/07 22:30:47;;;;;;;18.50;9.05;;;;;;;-0.50;86.98;98379.77;249960;1150;23057;-78
2021/01/07 22:35:49;;;;;;;18.07;9.13;;;;;;;-0.49;87.78;98370.85;250048;1147;22930;-79
2021/01/07 22:40:51;;;;;;;25.43;12.07;;;;;;;-0.49;87.60;98369.04;249875;1148;23024;-78
2021/01/07 22:45:53;;;;;;;20.60;10.50;;;;;;;-0.48;87.73;98372.46;250236;1147;22945;-78
2021/01/07 22:50:56;;;;;;;22.57;10.20;;;;;;;-0.47;87.93;98368.81;250036;1148;22991;-79
2021/01/07 22:55:58;;;;;;;19.50;9.73;;;;;;;-0.46;86.62;98375.66;249801;1148;27005;-79
2021/01/07 23:01:00;;;;;;;21.80;10.73;;;;;;;-0.47;86.69;98359.08;250098;1148;24739;-78
2021/01/07 23:06:03;;;;;;;20.53;10.47;;;;;;;-0.47;87.31;98363.55;249983;1148;22966;-78
2021/01/07 23:11:07;;;;;;;15.97;8.80;;;;;;;-0.45;87.77;98366.73;249997;1148;22981;-76
2021/01/07 23:16:10;;;;;;;22.50;11.05;;;;;;;-0.42;87.01;98361.02;249971;1152;24346;-78
2021/01/07 23:21:13;;;;;;;26.70;11.30;;;;;;;-0.39;87.04;98355.33;250079;1147;23403;-77
2021/01/07 23:26:15;;;;;;;21.53;11.20;;;;;;;-0.37;87.06;98358.52;249772;1155;23015;-79